KMBL/MBL METAR and TAF weather

Enter ICAO airport designator
Station Type Date Time Source
KMBL METAR 2022/01/18 05:56 UTC NOAA

KMBL 180556Z AUTO 30009KT 10SM OVC028 M01/M06 A2983 RMK AO2 SLP110 60000 T10111061 11011 21022 50004 FZRANO


Station Type Date Time Source
KMBL Decoded METAR 2022/01/18 05:56 UTC NOAA

Manistee, Manistee County-Blacker Airport, MI, United States (KMBL) 44-16N 086-15W
Jan 18, 2022 - 12:56 AM EST / 2022.01.18 0556 UTC
Wind: from the WNW (300 degrees) at 10 MPH (9 KT):0
Visibility: 10 mile(s):0
Sky conditions: overcast
Temperature: 30.0 F (-1.1 C)
Windchill: 21 F (-6 C):1
Dew Point: 21.0 F (-6.1 C)
Relative Humidity: 68%
Pressure (altimeter): 29.83 in. Hg (1010 hPa)
Pressure tendency: 0.01 inches (0.4 hPa) higher than three hours ago
ob: KMBL 180556Z AUTO 30009KT 10SM OVC028 M01/M06 A2983 RMK AO2 SLP110 60000 T10111061 11011 21022 50004 FZRANO
cycle: 6

Station Type Date Time Source
KMBL TAF 2022/01/18 06:21 UTC NOAA

TAF KMBL 180520Z 1806/1906 31005KT P6SM VCSH OVC027
TEMPO 1806/1810 BKN035
FM181000 VRB03KT P6SM OVC018
FM181500 15007KT P6SM VCSH BKN027
FM181800 15010G20KT 3SM -SHSN BR OVC011
FM190000 17011G27KT P6SM OVC022

Example: see airport list